Time;durP1;ratioP1;P1;durP2;ratioP2;P2;SDS_P1;SDS_P2;PMS_P1;PMS_P2;Temp;Humidity;BMP_temperature;BMP_pressure;BME280_temperature;BME280_humidity;BME280_pressure;Samples;Min_cycle;Max_cycle;Signal;HPM_P1;HPM_P2
2023/07/21 00:01:39;;;;;;;3.50;2.63;;;;;;;18.30;68.43;100036.38;4945373;29;20333;-72
2023/07/21 00:04:06;;;;;;;3.77;3.10;;;;;;;18.29;68.70;100029.25;4949108;28;20209;-71
2023/07/21 00:06:32;;;;;;;3.30;2.70;;;;;;;18.22;69.44;100030.31;4944211;28;20221;-71
2023/07/21 00:08:59;;;;;;;3.00;2.50;;;;;;;18.18;69.16;100036.69;4948908;28;20656;-71
2023/07/21 00:11:25;;;;;;;2.87;2.60;;;;;;;18.22;69.27;100033.00;4949847;28;20692;-72
2023/07/21 00:13:52;;;;;;;4.20;3.00;;;;;;;18.23;68.40;100033.88;4947652;28;20198;-72
2023/07/21 00:16:18;;;;;;;3.07;2.70;;;;;;;18.22;68.70;100032.13;4946831;28;20206;-72
2023/07/21 00:18:46;;;;;;;3.37;2.93;;;;;;;18.25;67.99;100024.88;4950919;28;20209;-71
2023/07/21 00:21:12;;;;;;;3.53;2.83;;;;;;;18.31;67.61;100021.19;4948154;28;20217;-71
2023/07/21 00:23:39;;;;;;;3.10;2.80;;;;;;;18.34;67.44;100019.28;4948063;28;20289;-71
2023/07/21 00:26:07;;;;;;;4.10;2.73;;;;;;;18.36;67.15;100033.53;4946585;28;20203;-72
2023/07/21 00:28:33;;;;;;;3.13;2.70;;;;;;;18.43;67.63;100028.94;4947728;29;20206;-71
2023/07/21 00:30:59;;;;;;;3.93;3.00;;;;;;;18.40;67.82;100015.59;4931877;29;20253;-72
2023/07/21 00:33:26;;;;;;;4.90;2.73;;;;;;;18.41;68.21;100018.25;4948261;28;20270;-71
2023/07/21 00:35:52;;;;;;;4.60;2.70;;;;;;;18.36;67.98;100013.91;4948651;28;20206;-71
2023/07/21 00:38:21;;;;;;;3.37;2.70;;;;;;;18.33;68.11;100011.28;4948605;29;20220;-72
2023/07/21 00:40:48;;;;;;;3.87;3.47;;;;;;;18.38;67.71;100006.69;4950429;28;20602;-71
2023/07/21 00:43:15;;;;;;;2.90;2.60;;;;;;;18.45;67.07;100011.03;4949421;28;20202;-71
2023/07/21 00:45:42;;;;;;;4.03;2.83;;;;;;;18.40;67.04;100018.25;4947746;29;20214;-71
2023/07/21 00:48:09;;;;;;;2.83;2.53;;;;;;;18.32;67.79;100023.81;4946935;28;20553;-71
2023/07/21 00:50:43;;;;;;;3.77;2.80;;;;;;;18.26;69.37;100039.19;4949061;28;20229;-71
2023/07/21 00:53:10;;;;;;;2.77;2.57;;;;;;;18.17;71.03;100041.16;4948087;28;20305;-71
2023/07/21 00:55:38;;;;;;;3.77;3.13;;;;;;;18.11;74.13;100041.31;4948600;29;20587;-71
2023/07/21 00:58:07;;;;;;;3.50;3.20;;;;;;;18.11;74.71;100052.03;4950309;29;20301;-71
2023/07/21 01:00:34;;;;;;;4.43;3.10;;;;;;;18.11;79.78;100054.69;4949282;28;20300;-71
2023/07/21 01:03:02;;;;;;;4.03;3.00;;;;;;;18.16;83.56;100058.16;4948628;28;20194;-72
2023/07/21 01:05:32;;;;;;;5.07;3.47;;;;;;;18.01;90.95;100049.56;4949057;29;20206;-72
2023/07/21 01:08:01;;;;;;;3.97;3.27;;;;;;;17.90;96.57;100055.16;4949258;28;20213;-72
2023/07/21 01:10:28;;;;;;;5.30;3.67;;;;;;;17.73;100.00;100062.69;4948682;28;20218;-72
2023/07/21 01:12:56;;;;;;;4.90;3.60;;;;;;;17.55;100.00;100058.53;4945945;29;20580;-72
2023/07/21 01:15:25;;;;;;;4.77;4.10;;;;;;;17.49;100.00;100051.53;4949486;28;20202;-73
2023/07/21 01:17:53;;;;;;;7.17;4.03;;;;;;;17.20;100.00;100043.19;4950270;29;20212;-72
2023/07/21 01:20:25;;;;;;;4.43;3.83;;;;;;;16.89;100.00;100041.09;4946760;29;20222;-72
2023/07/21 01:23:06;;;;;;;5.30;4.30;;;;;;;16.56;100.00;100031.81;4946497;29;20682;-73
2023/07/21 01:25:34;;;;;;;6.97;3.90;;;;;;;16.25;100.00;100018.06;4949784;28;20194;-72
2023/07/21 01:28:05;;;;;;;5.17;4.60;;;;;;;16.01;100.00;100013.09;4950154;28;20693;-72
2023/07/21 01:30:32;;;;;;;7.37;4.67;;;;;;;15.86;100.00;100016.88;4946982;28;20789;-72
2023/07/21 01:33:00;;;;;;;7.17;4.97;;;;;;;15.91;100.00;100011.44;4949930;28;20218;-71
2023/07/21 01:35:30;;;;;;;7.33;4.87;;;;;;;15.86;100.00;100024.00;4934519;29;20350;-72
2023/07/21 01:37:59;;;;;;;5.50;4.77;;;;;;;15.87;100.00;100017.75;4951655;28;20206;-72
2023/07/21 01:40:27;;;;;;;6.57;5.23;;;;;;;15.83;100.00;100013.34;4950956;29;20379;-72
2023/07/21 01:42:53;;;;;;;6.40;5.30;;;;;;;15.71;100.00;100013.53;4951401;28;20210;-72
2023/07/21 01:45:19;;;;;;;7.90;5.40;;;;;;;15.59;100.00;100007.44;4934668;29;20289;-73
2023/07/21 01:47:47;;;;;;;7.70;5.27;;;;;;;15.49;100.00;99995.09;4951653;28;20202;-73
2023/07/21 01:50:17;;;;;;;7.50;5.87;;;;;;;15.47;100.00;99983.53;4949807;28;20309;-72
2023/07/21 01:52:47;;;;;;;7.67;5.57;;;;;;;15.42;100.00;99982.72;4952052;29;20233;-72
2023/07/21 01:55:22;;;;;;;6.87;5.40;;;;;;;15.48;100.00;99973.75;4952258;28;20675;-72
2023/07/21 01:57:55;;;;;;;8.87;5.80;;;;;;;15.46;100.00;99980.91;4948827;28;20202;-74
2023/07/21 02:00:22;;;;;;;6.47;5.83;;;;;;;15.48;100.00;99973.75;4951724;28;20714;-73
2023/07/21 02:02:50;;;;;;;7.03;5.60;;;;;;;15.42;100.00;99972.06;4949040;28;20202;-73
2023/07/21 02:05:18;;;;;;;8.27;6.20;;;;;;;15.48;100.00;99969.28;4954389;28;20244;-72
2023/07/21 02:07:44;;;;;;;6.47;5.43;;;;;;;15.50;100.00;99964.81;4951582;29;20217;-72
2023/07/21 02:10:11;;;;;;;6.30;5.40;;;;;;;15.53;100.00;99967.44;4949178;28;20245;-72
2023/07/21 02:12:38;;;;;;;6.73;5.33;;;;;;;15.54;100.00;99966.53;4947324;28;20309;-73
2023/07/21 02:15:06;;;;;;;7.83;5.73;;;;;;;15.62;100.00;99963.81;4950013;28;20210;-73
2023/07/21 02:17:35;;;;;;;7.87;5.70;;;;;;;15.58;100.00;99968.28;4934388;29;20203;-73
2023/07/21 02:20:09;;;;;;;7.20;5.40;;;;;;;15.63;100.00;99958.47;4950674;29;20300;-73
2023/07/21 02:22:37;;;;;;;8.50;5.90;;;;;;;15.65;100.00;99954.00;4928460;29;20199;-72
2023/07/21 02:25:04;;;;;;;9.53;5.80;;;;;;;15.60;100.00;99955.81;4948834;28;20203;-73
2023/07/21 02:27:32;;;;;;;6.77;5.63;;;;;;;15.62;100.00;99951.38;4951222;28;20201;-73
2023/07/21 02:29:59;;;;;;;6.83;5.37;;;;;;;15.71;100.00;99954.78;4950561;28;20203;-72
2023/07/21 02:32:28;;;;;;;7.50;6.00;;;;;;;15.74;100.00;99957.41;4948420;28;20257;-71
2023/07/21 02:34:56;;;;;;;6.87;5.77;;;;;;;15.64;100.00;99962.03;4948552;28;20198;-73
2023/07/21 02:37:22;;;;;;;7.00;5.30;;;;;;;15.62;100.00;99966.50;4948059;28;20659;-73
2023/07/21 02:39:49;;;;;;;6.13;5.53;;;;;;;15.57;100.00;99963.81;4933359;29;20194;-72
2023/07/21 02:42:16;;;;;;;8.60;5.27;;;;;;;15.50;100.00;99959.47;4944351;28;20206;-72
2023/07/21 02:44:43;;;;;;;7.37;5.60;;;;;;;15.53;100.00;99963.91;4951755;28;20198;-72
2023/07/21 02:47:14;;;;;;;7.43;5.23;;;;;;;15.51;100.00;99966.59;4934300;28;20198;-73
2023/07/21 02:49:40;;;;;;;7.57;5.73;;;;;;;15.62;100.00;99963.81;4944063;28;20210;-73
2023/07/21 02:52:07;;;;;;;5.80;5.20;;;;;;;15.77;100.00;99960.94;4949173;28;20225;-72
2023/07/21 02:54:33;;;;;;;5.30;4.80;;;;;;;15.83;100.00;99957.28;4951669;29;20198;-71
2023/07/21 02:57:01;;;;;;;7.00;4.93;;;;;;;15.85;100.00;99963.47;4950062;28;20202;-72
2023/07/21 02:59:28;;;;;;;6.67;4.97;;;;;;;15.84;100.00;99964.38;4949986;28;20203;-72
2023/07/21 03:01:56;;;;;;;6.70;5.33;;;;;;;15.76;100.00;99958.28;4949044;28;20705;-72
2023/07/21 03:04:24;;;;;;;7.00;5.23;;;;;;;15.70;100.00;99953.03;4950777;29;20194;-72
2023/07/21 03:06:51;;;;;;;5.20;4.70;;;;;;;15.77;100.00;99946.69;4950672;29;20217;-72
2023/07/21 03:09:18;;;;;;;10.47;5.57;;;;;;;15.69;100.00;99953.94;4948656;28;20868;-72
2023/07/21 03:11:44;;;;;;;8.93;5.27;;;;;;;15.67;100.00;99945.94;4945321;29;20944;-72
2023/07/21 03:14:11;;;;;;;7.30;5.20;;;;;;;15.75;100.00;99951.19;4948751;29;20932;-72
2023/07/21 03:16:37;;;;;;;6.47;5.00;;;;;;;15.85;100.00;99952.78;4949569;28;20198;-73
2023/07/21 03:19:04;;;;;;;5.70;5.10;;;;;;;15.78;100.00;99946.66;4949768;28;20277;-72
2023/07/21 03:21:30;;;;;;;6.03;4.50;;;;;;;15.83;100.00;99946.59;4947899;28;20221;-74
2023/07/21 03:23:57;;;;;;;5.80;4.80;;;;;;;15.76;100.00;99952.94;4949455;28;20190;-71
2023/07/21 03:26:26;;;;;;;6.07;4.83;;;;;;;15.77;100.00;99949.38;4947700;28;20269;-72
2023/07/21 03:28:55;;;;;;;5.40;4.77;;;;;;;15.71;100.00;99954.78;4949367;29;20584;-72
2023/07/21 03:31:21;;;;;;;5.17;4.50;;;;;;;15.67;100.00;99951.28;4949296;28;20233;-72
2023/07/21 03:33:48;;;;;;;5.40;4.30;;;;;;;15.64;100.00;99956.69;4947569;29;20233;-72
2023/07/21 03:36:14;;;;;;;5.23;4.17;;;;;;;15.63;100.00;99954.91;4947576;28;20194;-72
2023/07/21 03:38:41;;;;;;;7.67;4.77;;;;;;;15.70;100.00;99950.38;4950246;29;20210;-72
2023/07/21 03:41:09;;;;;;;5.37;4.20;;;;;;;15.69;100.00;99944.13;4947983;29;20222;-71
2023/07/21 03:43:39;;;;;;;6.23;4.07;;;;;;;15.81;100.00;99943.06;4942534;28;20687;-72
2023/07/21 03:46:06;;;;;;;7.27;4.73;;;;;;;15.91;100.00;99942.03;4949445;28;20534;-72
2023/07/21 03:48:33;;;;;;;5.10;4.27;;;;;;;15.97;100.00;99949.94;4948675;28;20202;-72
2023/07/21 03:51:03;;;;;;;5.07;4.43;;;;;;;16.05;100.00;99949.84;4948783;28;20226;-72
2023/07/21 03:53:29;;;;;;;7.67;4.80;;;;;;;16.17;100.00;99952.28;4949570;28;20226;-72
2023/07/21 03:56:01;;;;;;;5.50;4.50;;;;;;;16.23;100.00;99961.09;4945844;28;20229;-72
2023/07/21 03:58:28;;;;;;;6.37;4.60;;;;;;;16.21;100.00;99959.34;4948789;29;20714;-72
2023/07/21 04:00:55;;;;;;;6.03;4.70;;;;;;;16.18;100.00;99954.06;4949414;29;20257;-72
2023/07/21 04:03:24;;;;;;;6.40;5.13;;;;;;;16.09;100.00;99951.53;4948588;28;20198;-72
2023/07/21 04:05:52;;;;;;;5.63;4.60;;;;;;;16.01;100.00;99948.09;4947806;28;20301;-72
2023/07/21 04:08:19;;;;;;;6.37;4.80;;;;;;;16.05;100.00;99950.72;4948644;28;20210;-72
2023/07/21 04:10:46;;;;;;;6.57;5.03;;;;;;;15.99;100.00;99948.13;4948104;28;20222;-72
2023/07/21 04:13:12;;;;;;;6.57;5.30;;;;;;;16.06;100.00;99960.50;4947093;28;20226;-72
2023/07/21 04:15:38;;;;;;;6.73;5.03;;;;;;;16.07;100.00;99967.59;4949744;29;20213;-72
2023/07/21 04:18:05;;;;;;;5.90;4.70;;;;;;;15.98;100.00;99954.38;4944432;28;20242;-73
2023/07/21 04:20:32;;;;;;;5.60;4.33;;;;;;;15.93;100.00;99954.44;4948181;28;20245;-71
2023/07/21 04:22:59;;;;;;;7.73;5.07;;;;;;;15.88;100.00;99950.97;4944223;28;20210;-72
2023/07/21 04:25:26;;;;;;;5.70;4.37;;;;;;;15.93;100.00;99959.78;4948672;28;20221;-72
2023/07/21 04:27:54;;;;;;;10.27;4.53;;;;;;;16.16;100.00;99959.44;4946382;28;20289;-72
2023/07/21 04:30:21;;;;;;;7.13;4.80;;;;;;;16.21;100.00;99951.34;4946030;28;20238;-72
2023/07/21 04:32:48;;;;;;;8.13;4.27;;;;;;;16.18;100.00;99941.59;4927442;29;20208;-73
2023/07/21 04:35:16;;;;;;;6.13;4.53;;;;;;;16.18;100.00;99948.72;4925815;29;20662;-73
2023/07/21 04:37:43;;;;;;;8.10;4.80;;;;;;;16.29;100.00;99957.44;4921812;29;20289;-71
2023/07/21 04:40:11;;;;;;;5.50;4.33;;;;;;;16.35;100.00;99956.44;4924979;29;20225;-72
2023/07/21 04:42:38;;;;;;;6.87;4.60;;;;;;;16.39;100.00;99953.69;4928018;29;20237;-72
2023/07/21 04:45:06;;;;;;;5.33;4.30;;;;;;;16.38;100.00;99948.38;4912615;29;20671;-72
2023/07/21 04:47:32;;;;;;;5.33;4.13;;;;;;;16.42;100.00;99952.78;4928390;29;20211;-71
2023/07/21 04:49:58;;;;;;;5.30;3.83;;;;;;;16.48;100.00;99958.00;4927801;29;20195;-72
2023/07/21 04:52:25;;;;;;;5.50;4.27;;;;;;;16.46;100.00;99949.13;4917260;29;20241;-71
2023/07/21 04:54:51;;;;;;;4.93;4.30;;;;;;;16.41;100.00;99942.97;4920485;29;20237;-72
2023/07/21 04:57:18;;;;;;;7.97;4.40;;;;;;;16.46;100.00;99941.13;4929223;29;20210;-72
2023/07/21 04:59:45;;;;;;;5.03;4.10;;;;;;;16.54;100.00;99931.16;4931983;29;20690;-72
2023/07/21 05:02:12;;;;;;;5.67;4.53;;;;;;;16.50;100.00;99940.16;4914276;29;20203;-71
2023/07/21 05:04:38;;;;;;;4.40;3.90;;;;;;;16.52;100.00;99938.34;4931938;29;20210;-71
2023/07/21 05:07:05;;;;;;;5.47;4.23;;;;;;;16.54;100.00;99936.50;4921760;29;20211;-72
2023/07/21 05:09:32;;;;;;;4.70;4.03;;;;;;;16.60;100.00;99934.59;4932554;29;20199;-72
2023/07/21 05:11:58;;;;;;;5.53;4.60;;;;;;;16.73;100.00;99942.44;4932561;29;20261;-72
2023/07/21 05:14:24;;;;;;;5.00;4.23;;;;;;;16.74;100.00;99933.50;4930480;29;20317;-72
2023/07/21 05:16:51;;;;;;;5.37;4.30;;;;;;;16.77;100.00;99936.97;4933991;29;20578;-72
2023/07/21 05:19:17;;;;;;;4.17;3.77;;;;;;;16.87;100.00;99949.28;4930707;29;20293;-72
2023/07/21 05:21:44;;;;;;;6.83;4.70;;;;;;;16.91;100.00;99947.44;4932452;29;20750;-71
2023/07/21 05:24:11;;;;;;;5.63;4.17;;;;;;;16.97;100.00;99950.00;4932711;29;20224;-72
2023/07/21 05:26:37;;;;;;;4.40;3.83;;;;;;;17.06;100.00;99955.16;4932692;29;20321;-71
2023/07/21 05:29:04;;;;;;;5.23;4.43;;;;;;;17.11;100.00;99958.63;4933002;29;20199;-71
2023/07/21 05:31:31;;;;;;;5.00;4.37;;;;;;;17.19;100.00;99945.06;4929347;28;20674;-72
2023/07/21 05:33:57;;;;;;;5.10;3.90;;;;;;;17.22;100.00;99947.72;4944585;28;20788;-71
2023/07/21 05:36:24;;;;;;;5.10;3.57;;;;;;;17.21;100.00;99937.88;4947596;29;20205;-71
2023/07/21 05:38:52;;;;;;;4.73;3.57;;;;;;;17.24;100.00;99937.84;4945683;29;20194;-71
2023/07/21 05:41:18;;;;;;;4.53;3.77;;;;;;;17.30;100.00;99936.84;4945842;28;20218;-72
2023/07/21 05:43:45;;;;;;;5.27;3.60;;;;;;;17.38;100.00;99937.56;4949070;29;20194;-71
2023/07/21 05:46:12;;;;;;;6.17;3.90;;;;;;;17.48;100.00;99934.63;4946422;28;20201;-71
2023/07/21 05:48:39;;;;;;;4.80;3.80;;;;;;;17.65;100.00;99941.44;4946841;28;20622;-72
2023/07/21 05:51:11;;;;;;;5.50;4.33;;;;;;;17.89;100.00;99951.59;4946274;28;20240;-72
2023/07/21 05:53:37;;;;;;;5.90;3.83;;;;;;;17.99;100.00;99952.25;4933171;28;20218;-73
2023/07/21 05:56:07;;;;;;;7.90;3.90;;;;;;;17.95;100.00;99961.28;4931713;29;20206;-73
2023/07/21 05:58:35;;;;;;;5.00;3.87;;;;;;;18.08;100.00;99973.50;4948307;28;20387;-72
2023/07/21 06:01:01;;;;;;;4.00;3.40;;;;;;;18.33;100.00;99973.75;4949607;28;20244;-71
2023/07/21 06:03:28;;;;;;;4.73;4.23;;;;;;;18.48;100.00;99976.06;4944096;28;20222;-73
2023/07/21 06:05:55;;;;;;;4.77;3.70;;;;;;;18.64;100.00;99964.06;4949226;28;20208;-72
2023/07/21 06:08:24;;;;;;;4.80;3.80;;;;;;;18.58;100.00;99969.56;4943928;28;20198;-71
2023/07/21 06:10:54;;;;;;;5.63;3.97;;;;;;;18.75;100.00;99977.16;4949975;28;20246;-72
2023/07/21 06:13:20;;;;;;;5.60;4.50;;;;;;;18.78;100.00;99972.59;4950052;28;20232;-72
2023/07/21 06:15:47;;;;;;;6.30;4.77;;;;;;;19.01;100.00;99982.72;4932150;29;20698;-72
2023/07/21 06:18:14;;;;;;;6.33;4.90;;;;;;;19.13;100.00;99975.25;4948461;28;20273;-71
2023/07/21 06:20:40;;;;;;;6.17;4.70;;;;;;;19.28;100.00;99975.72;4948796;28;20218;-72
2023/07/21 06:23:06;;;;;;;6.20;5.00;;;;;;;19.27;100.00;99984.69;4949520;28;20309;-72
2023/07/21 06:25:33;;;;;;;5.50;4.40;;;;;;;19.49;100.00;99976.88;4948877;28;20236;-72
2023/07/21 06:27:59;;;;;;;4.93;4.23;;;;;;;19.60;100.00;99977.47;4946528;28;20576;-72
2023/07/21 06:30:26;;;;;;;5.13;4.63;;;;;;;19.80;100.00;99984.06;4947082;28;20237;-72
2023/07/21 06:32:52;;;;;;;4.80;4.00;;;;;;;19.94;99.34;99984.50;4943803;28;20289;-72
2023/07/21 06:35:19;;;;;;;5.67;3.80;;;;;;;20.13;95.34;99985.69;4942341;28;20804;-71
2023/07/21 06:37:45;;;;;;;5.27;4.33;;;;;;;20.37;93.25;99985.81;4942690;28;20202;-75
2023/07/21 06:40:12;;;;;;;5.30;4.10;;;;;;;20.51;91.47;99979.09;4948440;28;20222;-75
2023/07/21 06:42:44;;;;;;;5.47;3.40;;;;;;;20.73;85.49;99973.81;4953963;28;20206;-75
2023/07/21 06:45:10;;;;;;;4.88;3.88;;;;;;;20.82;81.51;99975.34;4947493;28;20237;-74
2023/07/21 06:47:37;;;;;;;4.20;3.45;;;;;;;20.85;80.55;99975.22;4949479;28;20249;-74
2023/07/21 06:50:04;;;;;;;4.63;3.28;;;;;;;20.85;81.65;99967.16;4942028;28;20208;-74
2023/07/21 06:52:31;;;;;;;4.97;3.38;;;;;;;20.54;80.95;99962.84;4938260;28;20206;-75
2023/07/21 06:55:00;;;;;;;3.63;3.10;;;;;;;20.48;81.19;99968.44;4945321;28;20223;-75
2023/07/21 06:57:27;;;;;;;3.55;3.17;;;;;;;20.50;82.62;99966.56;4954151;28;20204;-75
2023/07/21 06:59:53;;;;;;;4.70;3.20;;;;;;;20.75;82.85;99968.38;4950630;28;20202;-75
2023/07/21 07:02:20;;;;;;;5.05;3.92;;;;;;;21.05;80.74;99958.34;4953357;29;20195;-75
2023/07/21 07:04:48;;;;;;;4.43;3.40;;;;;;;21.62;78.46;99959.84;4938731;29;20194;-75
2023/07/21 07:07:15;;;;;;;5.78;3.75;;;;;;;22.37;73.37;99958.59;4946367;29;20202;-75
2023/07/21 07:09:42;;;;;;;4.18;3.53;;;;;;;23.46;66.79;99946.59;4928217;29;20328;-75
2023/07/21 07:12:09;;;;;;;6.53;3.20;;;;;;;24.17;64.04;99960.38;4941962;29;20218;-75
2023/07/21 07:14:38;;;;;;;5.82;3.75;;;;;;;24.86;60.42;99955.97;4945741;29;20250;-75
2023/07/21 07:17:05;;;;;;;8.88;4.22;;;;;;;24.76;62.12;99961.91;4929390;29;20250;-75
2023/07/21 07:19:31;;;;;;;10.63;3.90;;;;;;;24.87;61.30;99962.25;4945462;29;20210;-75
2023/07/21 07:21:58;;;;;;;6.07;3.92;;;;;;;25.04;60.76;99969.53;4946600;28;20260;-76
2023/07/21 07:24:25;;;;;;;12.43;5.05;;;;;;;24.28;62.33;99969.75;4951126;29;20217;-75
2023/07/21 07:26:52;;;;;;;8.77;4.93;;;;;;;24.18;63.56;99973.84;4945733;29;20202;-75
2023/07/21 07:29:20;;;;;;;6.32;4.22;;;;;;;23.96;65.10;99970.41;4950958;29;20692;-75
2023/07/21 07:31:47;;;;;;;8.15;4.57;;;;;;;23.85;66.46;99970.03;4933703;29;20799;-75
2023/07/21 07:34:14;;;;;;;8.38;5.05;;;;;;;23.39;67.69;99975.75;4904894;29;20226;-75
2023/07/21 07:36:42;;;;;;;11.77;5.05;;;;;;;23.23;69.34;99976.53;4924139;29;20210;-75
2023/07/21 07:39:08;;;;;;;11.10;5.30;;;;;;;23.30;69.01;99981.59;4923155;29;20569;-74
2023/07/21 07:41:34;;;;;;;9.60;4.97;;;;;;;23.31;69.05;99987.88;4921010;29;20220;-75
2023/07/21 07:44:01;;;;;;;11.05;5.25;;;;;;;23.14;69.24;99985.91;4927403;29;20199;-75
2023/07/21 07:46:27;;;;;;;11.07;5.75;;;;;;;23.17;68.51;99985.75;4917215;29;20290;-76
2023/07/21 07:48:53;;;;;;;6.60;4.95;;;;;;;23.48;66.22;99979.84;4932204;29;20210;-76
2023/07/21 07:51:22;;;;;;;8.48;4.53;;;;;;;23.65;64.80;99984.53;4920952;29;20227;-76
2023/07/21 07:53:49;;;;;;;7.43;4.63;;;;;;;23.40;65.10;99979.31;4925218;29;20226;-75
2023/07/21 07:56:16;;;;;;;7.07;4.38;;;;;;;23.26;65.44;99981.78;4914052;29;20263;-77
2023/07/21 07:58:42;;;;;;;10.27;4.57;;;;;;;23.30;65.71;99988.81;4931830;29;20234;-76
2023/07/21 08:01:12;;;;;;;5.75;4.18;;;;;;;23.41;65.84;99978.38;4927891;29;20231;-75
2023/07/21 08:03:48;;;;;;;7.07;4.65;;;;;;;23.38;66.64;99983.94;4930406;29;20207;-75
2023/07/21 08:06:15;;;;;;;9.70;4.63;;;;;;;23.28;65.60;99979.91;4924126;29;20208;-76
2023/07/21 08:08:42;;;;;;;6.93;4.20;;;;;;;23.27;66.17;99976.31;4925190;29;20203;-76
2023/07/21 08:11:08;;;;;;;6.35;3.60;;;;;;;23.07;64.55;99979.03;4924889;29;20380;-76
2023/07/21 08:13:35;;;;;;;5.85;3.67;;;;;;;23.06;63.98;99979.97;4923742;29;20202;-75
2023/07/21 08:16:08;;;;;;;5.30;3.70;;;;;;;23.33;61.52;99981.44;4923939;29;20224;-75
2023/07/21 08:18:35;;;;;;;5.97;3.83;;;;;;;23.61;60.16;99980.19;4927884;29;20206;-75
2023/07/21 08:21:19;;;;;;;6.82;4.13;;;;;;;23.74;59.86;99975.97;4921855;29;20230;-72
2023/07/21 08:23:46;;;;;;;5.80;4.50;;;;;;;23.80;60.38;99983.78;4931495;29;20195;-72
2023/07/21 08:26:13;;;;;;;6.35;3.90;;;;;;;24.15;58.79;99970.41;4925415;29;20302;-72
2023/07/21 08:28:40;;;;;;;4.57;3.50;;;;;;;24.38;58.77;99978.28;4916055;29;20213;-73
2023/07/21 08:31:06;;;;;;;5.47;3.97;;;;;;;24.48;58.35;99978.72;4928623;28;20734;-72
2023/07/21 08:33:32;;;;;;;5.78;3.75;;;;;;;24.71;57.14;99973.00;4943838;28;20204;-72
2023/07/21 08:35:59;;;;;;;6.45;3.80;;;;;;;24.77;56.16;99980.78;4945567;29;20226;-72
2023/07/21 08:38:25;;;;;;;4.80;3.55;;;;;;;24.90;56.27;99978.34;4945364;28;20217;-71
2023/07/21 08:41:02;;;;;;;6.95;3.67;;;;;;;24.83;54.88;99980.50;4943149;28;20324;-71
2023/07/21 08:43:29;;;;;;;3.97;3.58;;;;;;;24.95;54.93;99977.16;4943936;28;20698;-72
2023/07/21 08:46:00;;;;;;;6.15;3.42;;;;;;;24.96;55.08;99975.31;4949160;28;20249;-71
2023/07/21 08:48:27;;;;;;;4.35;3.50;;;;;;;25.10;54.61;99977.31;4944845;28;20210;-72
2023/07/21 08:50:57;;;;;;;7.07;3.67;;;;;;;24.92;54.63;99977.31;4943780;28;20711;-72
2023/07/21 08:53:25;;;;;;;4.68;3.70;;;;;;;24.71;55.21;99985.66;4947147;28;20205;-72
2023/07/21 08:55:56;;;;;;;5.53;3.55;;;;;;;24.59;56.37;99982.63;4942921;28;20226;-72
2023/07/21 08:58:24;;;;;;;8.02;3.67;;;;;;;24.40;56.92;99978.19;4946267;28;20769;-72
2023/07/21 09:00:54;;;;;;;6.28;4.13;;;;;;;24.24;57.39;99978.94;4946229;28;20336;-71
2023/07/21 09:03:23;;;;;;;5.97;3.90;;;;;;;24.18;58.93;99981.94;4942217;28;20209;-72
2023/07/21 09:05:50;;;;;;;6.53;4.10;;;;;;;24.06;60.72;99969.91;4946708;28;20205;-71
2023/07/21 09:08:27;;;;;;;6.32;3.65;;;;;;;24.21;57.96;99980.91;4947414;29;20209;-72
2023/07/21 09:10:58;;;;;;;7.30;4.05;;;;;;;24.16;60.45;99975.75;4940878;28;20229;-72
2023/07/21 09:13:26;;;;;;;5.60;4.30;;;;;;;24.32;59.66;99978.59;4943810;28;20290;-72
2023/07/21 09:15:56;;;;;;;7.25;4.00;;;;;;;24.51;58.71;99978.56;4944109;28;20241;-71
2023/07/21 09:18:28;;;;;;;8.63;4.28;;;;;;;24.85;57.13;99983.13;4944646;28;20385;-70
2023/07/21 09:20:55;;;;;;;7.15;3.58;;;;;;;24.92;54.78;99974.59;4942438;28;21107;-69
2023/07/21 09:23:22;;;;;;;8.45;4.30;;;;;;;24.77;54.84;99969.97;4942900;28;20206;-69
2023/07/21 09:25:58;;;;;;;8.07;3.83;;;;;;;25.15;55.50;99965.28;4945783;28;20203;-71
2023/07/21 09:28:41;;;;;;;7.07;4.13;;;;;;;25.38;58.93;99971.31;4943665;28;20193;-70
2023/07/21 09:31:08;;;;;;;7.88;3.80;;;;;;;25.23;57.91;99976.59;4942686;28;20663;-70
2023/07/21 09:33:40;;;;;;;8.43;3.25;;;;;;;25.25;58.94;99969.28;4946606;28;20406;-70
2023/07/21 09:36:15;;;;;;;4.10;3.15;;;;;;;25.56;53.38;99970.28;4946154;29;20225;-70
2023/07/21 09:38:43;;;;;;;4.18;3.50;;;;;;;25.94;51.99;99970.91;4944973;28;20268;-70
2023/07/21 09:41:12;;;;;;;5.20;3.47;;;;;;;26.19;51.50;99971.25;4945442;29;20266;-69
2023/07/21 09:43:40;;;;;;;4.97;3.38;;;;;;;26.36;51.04;99967.59;4943503;28;20305;-70
2023/07/21 09:46:07;;;;;;;5.25;2.80;;;;;;;26.87;50.51;99978.19;4938242;28;20190;-70
2023/07/21 09:48:37;;;;;;;5.53;2.97;;;;;;;27.29;48.44;99982.88;4948652;28;20194;-69
2023/07/21 09:51:10;;;;;;;5.78;3.17;;;;;;;27.50;46.56;99977.94;4946214;28;20224;-69
2023/07/21 09:53:39;;;;;;;3.20;2.90;;;;;;;27.61;46.17;99975.41;4948011;28;20202;-69
2023/07/21 09:56:07;;;;;;;3.92;2.90;;;;;;;27.63;47.07;99962.63;4944596;28;20222;-70
2023/07/21 09:58:40;;;;;;;6.40;3.10;;;;;;;26.43;45.76;99970.84;4945213;29;20306;-70
2023/07/21 10:01:09;;;;;;;7.35;3.60;;;;;;;25.65;47.61;99969.81;4944439;28;20228;-70
2023/07/21 10:03:37;;;;;;;22.63;15.50;;;;;;;25.83;48.44;99965.22;4946416;28;20470;-69
2023/07/21 10:06:04;;;;;;;23.88;11.63;;;;;;;26.01;47.76;99969.59;4945655;28;20199;-71
2023/07/21 10:08:33;;;;;;;6.68;5.03;;;;;;;25.79;47.90;99983.50;4945112;28;20198;-70
2023/07/21 10:11:00;;;;;;;10.30;9.20;;;;;;;25.54;47.35;99974.91;4945353;28;20226;-70
2023/07/21 10:13:28;;;;;;;15.88;9.95;;;;;;;25.46;48.13;99969.06;4943173;28;20210;-70
2023/07/21 10:16:07;;;;;;;35.35;23.50;;;;;;;24.81;48.08;99976.97;4944826;28;20333;-71
2023/07/21 10:18:33;;;;;;;11.05;7.60;;;;;;;24.96;48.08;99981.63;4947547;28;20226;-70
2023/07/21 10:21:00;;;;;;;121.63;82.40;;;;;;;24.98;47.88;99974.31;4948077;28;20569;-71
2023/07/21 10:23:37;;;;;;;7.97;6.80;;;;;;;25.29;48.23;99976.28;4946397;28;20202;-71
2023/07/21 10:26:08;;;;;;;4.85;3.33;;;;;;;25.18;49.20;99983.19;4944567;28;20738;-71
2023/07/21 10:28:42;;;;;;;6.95;4.68;;;;;;;25.09;49.51;99979.16;4944072;28;20210;-72
2023/07/21 10:31:21;;;;;;;7.40;5.20;;;;;;;25.30;49.20;99971.72;4958457;23;20230;-69
2023/07/21 10:34:14;;;;;;;3.83;3.03;;;;;;;25.52;48.16;99977.72;4927913;29;20201;-71
2023/07/21 10:36:48;;;;;;;17.77;14.40;;;;;;;26.03;48.86;99973.13;4931036;29;20226;-71
2023/07/21 10:39:22;;;;;;;3.63;3.20;;;;;;;25.97;48.19;99976.16;4932606;29;20209;-71
2023/07/21 10:41:53;;;;;;;85.28;68.70;;;;;;;26.23;48.49;99978.25;4940468;29;20213;-72
2023/07/21 10:44:20;;;;;;;6.28;4.30;;;;;;;26.19;47.76;99971.25;4947392;29;20209;-71
2023/07/21 10:46:49;;;;;;;4.20;2.80;;;;;;;25.79;47.71;99960.94;4948434;29;20212;-71
2023/07/21 10:49:17;;;;;;;5.85;3.25;;;;;;;25.96;47.64;99970.81;4944412;29;20538;-71
2023/07/21 10:51:45;;;;;;;10.35;6.50;;;;;;;26.49;46.61;99970.50;4945875;29;20237;-72
2023/07/21 10:54:13;;;;;;;6.28;4.55;;;;;;;26.68;46.75;99962.09;4946942;28;20205;-72
2023/07/21 10:56:46;;;;;;;9.98;2.60;;;;;;;26.81;45.86;99968.53;4944279;29;20605;-73
2023/07/21 10:59:15;;;;;;;3.38;2.47;;;;;;;26.24;45.75;99960.13;4944434;29;20206;-72
2023/07/21 11:01:47;;;;;;;2.80;2.20;;;;;;;25.41;45.34;99958.47;4946789;29;20218;-73
2023/07/21 11:04:15;;;;;;;35.80;26.38;;;;;;;25.25;46.54;99962.97;4946461;29;20297;-72
2023/07/21 11:06:45;;;;;;;3.72;2.50;;;;;;;25.21;46.56;99961.34;4943141;29;20199;-72
2023/07/21 11:09:13;;;;;;;16.25;12.05;;;;;;;25.43;46.79;99961.97;4946348;29;20679;-72
2023/07/21 11:11:41;;;;;;;4.68;4.00;;;;;;;25.75;46.27;99959.34;4946399;28;20250;-70
2023/07/21 11:14:19;;;;;;;5.20;3.55;;;;;;;26.06;46.23;99959.38;4924816;29;20206;-70
2023/07/21 11:16:57;;;;;;;6.28;3.97;;;;;;;26.20;44.46;99954.00;4943852;28;20866;-69
2023/07/21 11:19:26;;;;;;;2.30;2.10;;;;;;;26.41;42.09;99946.47;4948687;28;20670;-71
2023/07/21 11:21:53;;;;;;;6.82;4.07;;;;;;;26.69;42.25;99945.72;4947970;28;20222;-69
2023/07/21 11:24:25;;;;;;;4.32;3.30;;;;;;;26.80;41.63;99950.50;4948884;28;20207;-71
2023/07/21 11:26:59;;;;;;;20.98;17.25;;;;;;;27.09;41.72;99946.03;4947980;28;20225;-70
2023/07/21 11:29:30;;;;;;;3.25;2.20;;;;;;;27.22;39.60;99948.84;4947369;28;20890;-68
2023/07/21 11:31:56;;;;;;;2.50;2.30;;;;;;;27.22;39.00;99937.97;4945769;28;20237;-70